<?xml version="1.0" encoding="utf-8"?>
<gpx xmlns:xsi="http://www.w3.org/2001/XMLSchema-instance" xmlns:xsd="http://www.w3.org/2001/XMLSchema" version="1.1" creator="Shapelink.com" xmlns="http://www.topografix.com/GPX/1/1" xmlns:gpxtpx="http://www.garmin.com/xmlschemas/TrackPointExtension/v1">
  <metadata>
    <name>Övrigt 2.88 km, 2019-07-13</name>
    <desc></desc>
    <author><name>Marian Moron</name></author> 
    <time>2019-07-13T21:24:26Z</time>
  </metadata>
  <trk>
    <name>Övrigt 2.88 km, 2019-07-13</name>
    <trkseg>
      <trkpt lat="51.230142708979" lon="4.45840888529">
        <ele>21.6</ele>
        <time>2019-07-13T21:24:26Z</time>
      </trkpt>
      <trkpt lat="51.230175901303" lon="4.458989164227">
        <ele>21</ele>
        <time>2019-07-13T21:24:51Z</time>
      </trkpt>
      <trkpt lat="51.230402799336" lon="4.459077677091">
        <ele>15.4</ele>
        <time>2019-07-13T21:25:17Z</time>
      </trkpt>
      <trkpt lat="51.230454934754" lon="4.459136098934">
        <ele>13</ele>
        <time>2019-07-13T21:25:30Z</time>
      </trkpt>
      <trkpt lat="51.230491228381" lon="4.459306754418">
        <ele>14.6</ele>
        <time>2019-07-13T21:25:45Z</time>
      </trkpt>
      <trkpt lat="51.230467675242" lon="4.459434746031">
        <ele>16.4</ele>
        <time>2019-07-13T21:25:54Z</time>
      </trkpt>
      <trkpt lat="51.230453090736" lon="4.459538011039">
        <ele>18.2</ele>
        <time>2019-07-13T21:26:03Z</time>
      </trkpt>
      <trkpt lat="51.230473542572" lon="4.459625769532">
        <ele>18.2</ele>
        <time>2019-07-13T21:26:10Z</time>
      </trkpt>
      <trkpt lat="51.230639923287" lon="4.459762645959">
        <ele>17.6</ele>
        <time>2019-07-13T21:26:35Z</time>
      </trkpt>
      <trkpt lat="51.231098916131" lon="4.459640437857">
        <ele>16.4</ele>
        <time>2019-07-13T21:27:09Z</time>
      </trkpt>
      <trkpt lat="51.231439891823" lon="4.459650663775">
        <ele>17</ele>
        <time>2019-07-13T21:27:42Z</time>
      </trkpt>
      <trkpt lat="51.231645248373" lon="4.459729285997">
        <ele>9.6</ele>
        <time>2019-07-13T21:28:02Z</time>
      </trkpt>
      <trkpt lat="51.231743065146" lon="4.459888877373">
        <ele>8</ele>
        <time>2019-07-13T21:28:13Z</time>
      </trkpt>
      <trkpt lat="51.231913133897" lon="4.460162714046">
        <ele>7</ele>
        <time>2019-07-13T21:28:32Z</time>
      </trkpt>
      <trkpt lat="51.231911122241" lon="4.46036522075">
        <ele>6.4</ele>
        <time>2019-07-13T21:28:50Z</time>
      </trkpt>
      <trkpt lat="51.232038275664" lon="4.460997802743">
        <ele>4.6</ele>
        <time>2019-07-13T21:29:19Z</time>
      </trkpt>
      <trkpt lat="51.232031151049" lon="4.461081621743">
        <ele>4.8</ele>
        <time>2019-07-13T21:29:24Z</time>
      </trkpt>
      <trkpt lat="51.232093260928" lon="4.461495268508">
        <ele>5.8</ele>
        <time>2019-07-13T21:29:48Z</time>
      </trkpt>
      <trkpt lat="51.232161741051" lon="4.461651171848">
        <ele>6.2</ele>
        <time>2019-07-13T21:29:57Z</time>
      </trkpt>
      <trkpt lat="51.232173056616" lon="4.461817552563">
        <ele>7</ele>
        <time>2019-07-13T21:30:16Z</time>
      </trkpt>
      <trkpt lat="51.23229006794" lon="4.462507885847">
        <ele>9.2</ele>
        <time>2019-07-13T21:30:50Z</time>
      </trkpt>
      <trkpt lat="51.232333486182" lon="4.462905439364">
        <ele>15</ele>
        <time>2019-07-13T21:31:17Z</time>
      </trkpt>
      <trkpt lat="51.23244764766" lon="4.462929076322">
        <ele>19.4</ele>
        <time>2019-07-13T21:31:34Z</time>
      </trkpt>
      <trkpt lat="51.232476481396" lon="4.462914407997">
        <ele>20</ele>
        <time>2019-07-13T21:31:36Z</time>
      </trkpt>
      <trkpt lat="51.232907730151" lon="4.462681055901">
        <ele>31</ele>
        <time>2019-07-13T21:32:09Z</time>
      </trkpt>
      <trkpt lat="51.233204449411" lon="4.462576785065">
        <ele>22.2</ele>
        <time>2019-07-13T21:32:30Z</time>
      </trkpt>
      <trkpt lat="51.233278880683" lon="4.462589441734">
        <ele>17.6</ele>
        <time>2019-07-13T21:32:40Z</time>
      </trkpt>
      <trkpt lat="51.23334283458" lon="4.462898063292">
        <ele>18.4</ele>
        <time>2019-07-13T21:32:57Z</time>
      </trkpt>
      <trkpt lat="51.233369069927" lon="4.463064527826">
        <ele>17.6</ele>
        <time>2019-07-13T21:33:04Z</time>
      </trkpt>
      <trkpt lat="51.233381642777" lon="4.46322093408">
        <ele>15.6</ele>
        <time>2019-07-13T21:33:16Z</time>
      </trkpt>
      <trkpt lat="51.233438723516" lon="4.463729044858">
        <ele>16.6</ele>
        <time>2019-07-13T21:33:52Z</time>
      </trkpt>
      <trkpt lat="51.233358844009" lon="4.464106733272">
        <ele>9.6</ele>
        <time>2019-07-13T21:34:17Z</time>
      </trkpt>
      <trkpt lat="51.233286340574" lon="4.464263307164">
        <ele>9.2</ele>
        <time>2019-07-13T21:34:27Z</time>
      </trkpt>
      <trkpt lat="51.233276114656" lon="4.464304797569">
        <ele>9.4</ele>
        <time>2019-07-13T21:34:29Z</time>
      </trkpt>
      <trkpt lat="51.233241329771" lon="4.464390963501">
        <ele>8</ele>
        <time>2019-07-13T21:34:34Z</time>
      </trkpt>
      <trkpt lat="51.233223308686" lon="4.464442596005">
        <ele>7.8</ele>
        <time>2019-07-13T21:34:37Z</time>
      </trkpt>
      <trkpt lat="51.233132867985" lon="4.464820787333">
        <ele>17.2</ele>
        <time>2019-07-13T21:35:13Z</time>
      </trkpt>
      <trkpt lat="51.232917117879" lon="4.465369047412">
        <ele>13.2</ele>
        <time>2019-07-13T21:35:38Z</time>
      </trkpt>
      <trkpt lat="51.232890463437" lon="4.46550835459">
        <ele>12.8</ele>
        <time>2019-07-13T21:35:49Z</time>
      </trkpt>
      <trkpt lat="51.232778816529" lon="4.465840194011">
        <ele>12.2</ele>
        <time>2019-07-13T21:36:07Z</time>
      </trkpt>
      <trkpt lat="51.232697176823" lon="4.465977405714">
        <ele>8.4</ele>
        <time>2019-07-13T21:36:20Z</time>
      </trkpt>
      <trkpt lat="51.232493077558" lon="4.466402870958">
        <ele>6.2</ele>
        <time>2019-07-13T21:36:56Z</time>
      </trkpt>
      <trkpt lat="51.23226324586" lon="4.467028579793">
        <ele>8.8</ele>
        <time>2019-07-13T21:37:37Z</time>
      </trkpt>
      <trkpt lat="51.232203315275" lon="4.467104100712">
        <ele>12.8</ele>
        <time>2019-07-13T21:37:49Z</time>
      </trkpt>
      <trkpt lat="51.2322263655" lon="4.467173251387">
        <ele>10.8</ele>
        <time>2019-07-13T21:37:54Z</time>
      </trkpt>
      <trkpt lat="51.232190993882" lon="4.467387157475">
        <ele>7</ele>
        <time>2019-07-13T21:38:08Z</time>
      </trkpt>
      <trkpt lat="51.232193424633" lon="4.467773730703">
        <ele>13.8</ele>
        <time>2019-07-13T21:38:57Z</time>
      </trkpt>
      <trkpt lat="51.232277159814" lon="4.467995180501">
        <ele>12.2</ele>
        <time>2019-07-13T21:39:17Z</time>
      </trkpt>
      <trkpt lat="51.232410432024" lon="4.468056955104">
        <ele>8.4</ele>
        <time>2019-07-13T21:39:45Z</time>
      </trkpt>
      <trkpt lat="51.232587206295" lon="4.468643855742">
        <ele>13.6</ele>
        <time>2019-07-13T21:40:31Z</time>
      </trkpt>
      <trkpt lat="51.232676808806" lon="4.468899000778">
        <ele>15.6</ele>
        <time>2019-07-13T21:40:58Z</time>
      </trkpt>
      <trkpt lat="51.232945951615" lon="4.469345672229">
        <ele>6</ele>
        <time>2019-07-13T21:41:31Z</time>
      </trkpt>
      <trkpt lat="51.233235713898" lon="4.469899715819">
        <ele>2</ele>
        <time>2019-07-13T21:42:09Z</time>
      </trkpt>
      <trkpt lat="51.233344930055" lon="4.470073388787">
        <ele>0.2</ele>
        <time>2019-07-13T21:42:34Z</time>
      </trkpt>
      <trkpt lat="51.233375859266" lon="4.470124350739">
        <ele>0.2</ele>
        <time>2019-07-13T21:42:38Z</time>
      </trkpt>
      <trkpt lat="51.23339312598" lon="4.470176821433">
        <ele>0</ele>
        <time>2019-07-13T21:42:43Z</time>
      </trkpt>
      <trkpt lat="51.233437801507" lon="4.470257790587">
        <ele>0</ele>
        <time>2019-07-13T21:42:51Z</time>
      </trkpt>
      <trkpt lat="51.233460348818" lon="4.470320068104">
        <ele>0</ele>
        <time>2019-07-13T21:42:56Z</time>
      </trkpt>
      <trkpt lat="51.233380888406" lon="4.47043020627">
        <ele>0</ele>
        <time>2019-07-13T21:43:07Z</time>
      </trkpt>
      <trkpt lat="51.233326741332" lon="4.470360552681">
        <ele>0</ele>
        <time>2019-07-13T21:43:19Z</time>
      </trkpt>
      <trkpt lat="51.233166479404" lon="4.470025444319">
        <ele>0</ele>
        <time>2019-07-13T21:43:44Z</time>
      </trkpt>
      <trkpt lat="51.233152984545" lon="4.469988563959">
        <ele>0</ele>
        <time>2019-07-13T21:43:47Z</time>
      </trkpt>
      <trkpt lat="51.233133538537" lon="4.469948833753">
        <ele>0</ele>
        <time>2019-07-13T21:43:50Z</time>
      </trkpt>
      <trkpt lat="51.233080564929" lon="4.469858057776">
        <ele>0</ele>
        <time>2019-07-13T21:44:02Z</time>
      </trkpt>
      <trkpt lat="51.232842267512" lon="4.469394371068">
        <ele>0</ele>
        <time>2019-07-13T21:44:34Z</time>
      </trkpt>
      <trkpt lat="51.232765740765" lon="4.469258919564">
        <ele>0</ele>
        <time>2019-07-13T21:44:44Z</time>
      </trkpt>
      <trkpt lat="51.232704804352" lon="4.469063872751">
        <ele>0.2</ele>
        <time>2019-07-13T21:44:55Z</time>
      </trkpt>
      <trkpt lat="51.232469608238" lon="4.4684411814">
        <ele>4.2</ele>
        <time>2019-07-13T21:45:30Z</time>
      </trkpt>
      <trkpt lat="51.232390734559" lon="4.468313692701">
        <ele>4.6</ele>
        <time>2019-07-13T21:45:44Z</time>
      </trkpt>
      <trkpt lat="51.232289732664" lon="4.468088722505">
        <ele>4.8</ele>
        <time>2019-07-13T21:46:00Z</time>
      </trkpt>
      <trkpt lat="51.231980692011" lon="4.467576839872">
        <ele>2.4</ele>
        <time>2019-07-13T21:46:44Z</time>
      </trkpt>
      <trkpt lat="51.231872816958" lon="4.467576839872">
        <ele>2.4</ele>
        <time>2019-07-13T21:47:06Z</time>
      </trkpt>
      <trkpt lat="51.231777347117" lon="4.467409788605">
        <ele>0</ele>
        <time>2019-07-13T21:47:17Z</time>
      </trkpt>
      <trkpt lat="51.231524716651" lon="4.467367879105">
        <ele>0</ele>
        <time>2019-07-13T21:48:01Z</time>
      </trkpt>
      <trkpt lat="51.231474760527" lon="4.467369471666">
        <ele>0</ele>
        <time>2019-07-13T21:49:03Z</time>
      </trkpt>
      <trkpt lat="51.231370405872" lon="4.467369555485">
        <ele>0</ele>
        <time>2019-07-13T21:49:12Z</time>
      </trkpt>
      <trkpt lat="51.231101765977" lon="4.467502240962">
        <ele>0</ele>
        <time>2019-07-13T21:49:38Z</time>
      </trkpt>
      <trkpt lat="51.230655932716" lon="4.467581366098">
        <ele>0</ele>
        <time>2019-07-13T21:49:58Z</time>
      </trkpt>
      <trkpt lat="51.230239352286" lon="4.467670717152">
        <ele>0</ele>
        <time>2019-07-13T21:50:15Z</time>
      </trkpt>
      <trkpt lat="51.230119742573" lon="4.467724864226">
        <ele>0</ele>
        <time>2019-07-13T21:50:29Z</time>
      </trkpt>
      <trkpt lat="51.229700396116" lon="4.467820334067">
        <ele>0</ele>
        <time>2019-07-13T21:51:00Z</time>
      </trkpt>
      <trkpt lat="51.229487579675" lon="4.467888562733">
        <ele>0</ele>
        <time>2019-07-13T21:51:17Z</time>
      </trkpt>
      <trkpt lat="51.229140066101" lon="4.467765013527">
        <ele>0</ele>
        <time>2019-07-13T21:51:54Z</time>
      </trkpt>
      <trkpt lat="51.228983743666" lon="4.467706004951">
        <ele>0</ele>
        <time>2019-07-13T21:52:10Z</time>
      </trkpt>
      <trkpt lat="51.228783835351" lon="4.467621683037">
        <ele>0</ele>
        <time>2019-07-13T21:52:28Z</time>
      </trkpt>
      <trkpt lat="51.228340684298" lon="4.467374584625">
        <ele>0</ele>
        <time>2019-07-13T21:52:48Z</time>
      </trkpt>
      <trkpt lat="51.227939191288" lon="4.467005529568">
        <ele>0</ele>
        <time>2019-07-13T21:53:06Z</time>
      </trkpt>
      <trkpt lat="51.22784346999" lon="4.46656698856">
        <ele>0</ele>
        <time>2019-07-13T21:53:32Z</time>
      </trkpt>
      <trkpt lat="51.227889067526" lon="4.46633983907">
        <ele>0</ele>
        <time>2019-07-13T21:53:53Z</time>
      </trkpt>
      <trkpt lat="51.22789376139" lon="4.4662870331">
        <ele>0</ele>
        <time>2019-07-13T21:53:57Z</time>
      </trkpt>
      <trkpt lat="51.227964672264" lon="4.465783616186">
        <ele>4.6</ele>
        <time>2019-07-13T21:54:37Z</time>
      </trkpt>
      <trkpt lat="51.227979592046" lon="4.465079452767">
        <ele>13.8</ele>
        <time>2019-07-13T21:55:22Z</time>
      </trkpt>
      <trkpt lat="51.227940113297" lon="4.464805196999">
        <ele>14.4</ele>
        <time>2019-07-13T21:55:45Z</time>
      </trkpt>
      <trkpt lat="51.227965594273" lon="4.464500514934">
        <ele>21</ele>
        <time>2019-07-13T21:56:10Z</time>
      </trkpt>
      <trkpt lat="51.227970455775" lon="4.464472100293">
        <ele>20.8</ele>
        <time>2019-07-13T21:56:12Z</time>
      </trkpt>
      <trkpt lat="51.227966181006" lon="4.464447373688">
        <ele>21</ele>
        <time>2019-07-13T21:56:14Z</time>
      </trkpt>
      <trkpt lat="51.227904071127" lon="4.463891569899">
        <ele>22.8</ele>
        <time>2019-07-13T21:56:55Z</time>
      </trkpt>
      <trkpt lat="51.227828885484" lon="4.463577583925">
        <ele>11.2</ele>
        <time>2019-07-13T21:57:23Z</time>
      </trkpt>
      <trkpt lat="51.227802650137" lon="4.462947600321">
        <ele>2.6</ele>
        <time>2019-07-13T21:58:10Z</time>
      </trkpt>
      <trkpt lat="51.227854115003" lon="4.462508221123">
        <ele>2.6</ele>
        <time>2019-07-13T21:58:40Z</time>
      </trkpt>
      <trkpt lat="51.227854953193" lon="4.462445440692">
        <ele>3.4</ele>
        <time>2019-07-13T21:58:44Z</time>
      </trkpt>
      <trkpt lat="51.227858641229" lon="4.46235089286">
        <ele>5.2</ele>
        <time>2019-07-13T21:58:50Z</time>
      </trkpt>
      <trkpt lat="51.227825448905" lon="4.4616434605">
        <ele>8.2</ele>
        <time>2019-07-13T21:59:41Z</time>
      </trkpt>
      <trkpt lat="51.227861491075" lon="4.461476409233">
        <ele>5.4</ele>
        <time>2019-07-13T21:59:55Z</time>
      </trkpt>
      <trkpt lat="51.227882445825" lon="4.461306759577">
        <ele>5.6</ele>
        <time>2019-07-13T22:00:11Z</time>
      </trkpt>
      <trkpt lat="51.227905579869" lon="4.460950864103">
        <ele>9.8</ele>
        <time>2019-07-13T22:00:36Z</time>
      </trkpt>
      <trkpt lat="51.227879763617" lon="4.460732934703">
        <ele>7.2</ele>
        <time>2019-07-13T22:00:53Z</time>
      </trkpt>
      <trkpt lat="51.227948998111" lon="4.460533194026">
        <ele>0</ele>
        <time>2019-07-13T22:01:25Z</time>
      </trkpt>
      <trkpt lat="51.228036840423" lon="4.46045071613">
        <ele>3</ele>
        <time>2019-07-13T22:01:34Z</time>
      </trkpt>
      <trkpt lat="51.228087886194" lon="4.460415679788">
        <ele>8.4</ele>
        <time>2019-07-13T22:01:44Z</time>
      </trkpt>
      <trkpt lat="51.228138848146" lon="4.460315516083">
        <ele>10.6</ele>
        <time>2019-07-13T22:01:55Z</time>
      </trkpt>
      <trkpt lat="51.228195090695" lon="4.460240414259">
        <ele>11</ele>
        <time>2019-07-13T22:02:03Z</time>
      </trkpt>
      <trkpt lat="51.228219482024" lon="4.460187692108">
        <ele>11.6</ele>
        <time>2019-07-13T22:02:09Z</time>
      </trkpt>
      <trkpt lat="51.228291734002" lon="4.460114685759">
        <ele>6.2</ele>
        <time>2019-07-13T22:02:15Z</time>
      </trkpt>
      <trkpt lat="51.228387622938" lon="4.459984095757">
        <ele>2</ele>
        <time>2019-07-13T22:02:36Z</time>
      </trkpt>
      <trkpt lat="51.228465071694" lon="4.459692321818">
        <ele>0.4</ele>
        <time>2019-07-13T22:02:59Z</time>
      </trkpt>
      <trkpt lat="51.228593314764" lon="4.459460059369">
        <ele>4</ele>
        <time>2019-07-13T22:03:20Z</time>
      </trkpt>
      <trkpt lat="51.228629356934" lon="4.458863854822">
        <ele>7</ele>
        <time>2019-07-13T22:04:07Z</time>
      </trkpt>
      <trkpt lat="51.228613263686" lon="4.458291622509">
        <ele>2.6</ele>
        <time>2019-07-13T22:04:52Z</time>
      </trkpt>
      <trkpt lat="51.228679396877" lon="4.45824208548">
        <ele>0</ele>
        <time>2019-07-13T22:05:15Z</time>
      </trkpt>
      <trkpt lat="51.228959436156" lon="4.458154159349">
        <ele>3.4</ele>
        <time>2019-07-13T22:05:47Z</time>
      </trkpt>
      <trkpt lat="51.229066221562" lon="4.458133539875">
        <ele>6.2</ele>
        <time>2019-07-13T22:06:03Z</time>
      </trkpt>
      <trkpt lat="51.229505852217" lon="4.457969086997">
        <ele>4.2</ele>
        <time>2019-07-13T22:06:48Z</time>
      </trkpt>
      <trkpt lat="51.229756890122" lon="4.45790429491">
        <ele>7</ele>
        <time>2019-07-13T22:07:13Z</time>
      </trkpt>
      <trkpt lat="51.229822017485" lon="4.457838161719">
        <ele>5.2</ele>
        <time>2019-07-13T22:07:21Z</time>
      </trkpt>
      <trkpt lat="51.229889240323" lon="4.457892476431">
        <ele>5.2</ele>
        <time>2019-07-13T22:07:30Z</time>
      </trkpt>
      <trkpt lat="51.229855461266" lon="4.457973780861">
        <ele>3.4</ele>
        <time>2019-07-13T22:07:37Z</time>
      </trkpt>
      <trkpt lat="51.229720345038" lon="4.457977636535">
        <ele>0</ele>
        <time>2019-07-13T22:08:09Z</time>
      </trkpt>
    </trkseg>
  </trk>
</gpx>